MGGT/GUA METAR and TAF weather

Enter ICAO airport designator
Station Type Date Time Source
MGGT METAR 2020/07/06 01:45 UTC NOAA

MGGT 060145Z 00000KT 9999 TSRA BKN014 FEW022CB CB/TS/LTNG E/SE


Station Type Date Time Source
MGGT Decoded METAR 2020/07/06 01:45 UTC NOAA

Guatemala Aeropuertola Aurora , Guatemala (MGGT) 14-35N 090-31W 1489M
Jul 05, 2020 - 09:45 PM EDT / 2020.07.06 0145 UTC
Wind: Calm:0
Visibility: greater than 7 mile(s):0
Sky conditions: mostly cloudy
Weather: rain with thunder; Cumulonimbus clouds observed
ob: MGGT 060145Z 00000KT 9999 TSRA BKN014 FEW022CB CB/TS/LTNG E/SE
cycle: 2

Station Type Date Time Source
MGGT TAF 2020/07/06 12:18 UTC NOAA

TAF TAF MGGT 061100Z 0612/0712 VRB03KT 9999 FEW016 BKN200 TX26/0620Z TN17/0612Z PROB30 0612/0614 8000 RADZ BKN012
BECMG 0614/0616 11008KT FEW018
BECMG 0618/0620 15010KT FEW020
BECMG 0701/0703 03008KT SCT016
BECMG 0708/0710 FEW014

Example: see airport list